Time;durP1;ratioP1;P1;durP2;ratioP2;P2;SDS_P1;SDS_P2;PMS_P1;PMS_P2;Temp;Humidity;BMP_temperature;BMP_pressure;BME280_temperature;BME280_humidity;BME280_pressure;Samples;Min_cycle;Max_cycle;Signal;HPM_P1;HPM_P2
2022/01/10 00:01:42;;;;;;;;;;;0.70;99.90;;;;;;4956866;28;19922;-76
2022/01/10 00:04:08;;;;;;;;;;;0.60;99.90;;;;;;4940486;28;19922;-77
2022/01/10 00:06:35;;;;;;;;;;;0.60;99.90;;;;;;4956328;28;19977;-76
2022/01/10 00:09:00;;;;;;;;;;;0.60;99.90;;;;;;4956125;28;19972;-76
2022/01/10 00:11:26;;;;;;;;;;;0.60;99.90;;;;;;4956121;28;20005;-76
2022/01/10 00:13:51;;;;;;;;;;;0.50;99.90;;;;;;4956256;28;19926;-76
2022/01/10 00:16:20;;;;;;;;;;;0.50;99.90;;;;;;4955794;28;19922;-76
2022/01/10 00:18:46;;;;;;;;;;;0.50;99.90;;;;;;4956156;28;20012;-76
2022/01/10 00:21:11;;;;;;;;;;;0.60;99.90;;;;;;4940673;28;20061;-76
2022/01/10 00:23:37;;;;;;;;;;;0.40;99.90;;;;;;4939758;28;19922;-76
2022/01/10 00:26:03;;;;;;;;;;;0.40;99.90;;;;;;4940187;28;19969;-76
2022/01/10 00:28:29;;;;;;;;;;;0.40;99.90;;;;;;4940219;28;20000;-76
2022/01/10 00:30:57;;;;;;;;;;;0.30;99.90;;;;;;4939773;28;19929;-76
2022/01/10 00:33:23;;;;;;;;;;;0.30;99.90;;;;;;4939516;28;20330;-76
2022/01/10 00:35:48;;;;;;;;;;;0.30;99.90;;;;;;4955958;28;19926;-76
2022/01/10 00:38:14;;;;;;;;;;;0.30;99.90;;;;;;4939398;28;20306;-76
2022/01/10 00:40:42;;;;;;;;;;;0.30;99.90;;;;;;4939995;28;19928;-76
2022/01/10 00:43:10;;;;;;;;;;;0.30;99.90;;;;;;4939425;28;19922;-76
2022/01/10 00:45:36;;;;;;;;;;;0.20;99.90;;;;;;4921462;28;19973;-76
2022/01/10 00:48:02;;;;;;;;;;;0.20;99.90;;;;;;4956115;28;19926;-76
2022/01/10 00:50:28;;;;;;;;;;;0.20;99.90;;;;;;4940002;28;20012;-76
2022/01/10 00:52:54;;;;;;;;;;;0.20;99.90;;;;;;4939080;28;19922;-76
2022/01/10 00:55:20;;;;;;;;;;;0.10;99.90;;;;;;4939662;28;19929;-76
2022/01/10 00:57:45;;;;;;;;;;;0.10;99.90;;;;;;4939909;28;19926;-76
2022/01/10 01:00:12;;;;;;;;;;;0.10;99.90;;;;;;4940023;28;19972;-76
2022/01/10 01:02:40;;;;;;;;;;;0.10;99.90;;;;;;4939620;28;20453;-76
2022/01/10 01:05:08;;;;;;;;;;;0.00;99.90;;;;;;4939411;28;19930;-76
2022/01/10 01:07:34;;;;;;;;;;;0.00;99.90;;;;;;4939407;28;19922;-76
2022/01/10 01:12:56;;;;;;;;;;;0.00;99.90;;;;;;4955372;28;19929;-76
2022/01/10 01:15:30;;;;;;;;;;;0.00;99.90;;;;;;4940115;28;20020;-76
2022/01/10 01:25:49;;;;;;;;;;;-0.10;99.90;;;;;;4955661;28;19949;-76
2022/01/10 01:28:17;;;;;;;;;;;-0.10;99.90;;;;;;4943034;28;19922;-76
2022/01/10 01:30:45;;;;;;;;;;;-0.10;99.90;;;;;;4959821;28;20010;-76
2022/01/10 01:33:13;;;;;;;;;;;0.00;99.90;;;;;;4958952;28;19926;-76
2022/01/10 01:35:41;;;;;;;;;;;-0.10;99.90;;;;;;4958757;28;19973;-76
2022/01/10 01:38:08;;;;;;;;;;;-0.20;99.90;;;;;;4943577;28;20001;-76
2022/01/10 01:40:35;;;;;;;;;;;-0.20;99.90;;;;;;4959016;28;20017;-76
2022/01/10 01:43:01;;;;;;;;;;;-0.20;99.90;;;;;;4958880;28;19961;-75
2022/01/10 01:45:37;;;;;;;;;;;-0.20;99.90;;;;;;4943264;28;19922;-76
2022/01/10 01:48:03;;;;;;;;;;;-0.20;99.90;;;;;;4943022;28;20365;-76
2022/01/10 01:50:29;;;;;;;;;;;-0.10;99.90;;;;;;4943145;28;19965;-76
2022/01/10 01:53:00;;;;;;;;;;;-0.20;99.90;;;;;;4942590;28;20429;-76
2022/01/10 01:55:28;;;;;;;;;;;-0.30;99.90;;;;;;4958848;28;19929;-76
2022/01/10 01:57:57;;;;;;;;;;;-0.20;99.90;;;;;;4943630;28;19926;-77
2022/01/10 02:00:22;;;;;;;;;;;-0.30;99.90;;;;;;4959083;28;20268;-77
2022/01/10 02:02:52;;;;;;;;;;;-0.30;99.90;;;;;;4942263;28;20336;-77
2022/01/10 02:05:17;;;;;;;;;;;-0.30;99.90;;;;;;4942207;28;19922;-77
2022/01/10 02:07:43;;;;;;;;;;;-0.40;99.90;;;;;;4958641;28;19945;-77
2022/01/10 02:10:09;;;;;;;;;;;-0.30;99.90;;;;;;4958094;28;20009;-77
2022/01/10 02:12:34;;;;;;;;;;;-0.30;99.90;;;;;;4958820;28;20314;-77
2022/01/10 02:15:00;;;;;;;;;;;-0.40;99.90;;;;;;4942413;28;19965;-77
2022/01/10 02:17:34;;;;;;;;;;;-0.40;99.90;;;;;;4958282;28;20396;-77
2022/01/10 02:20:06;;;;;;;;;;;-0.40;99.90;;;;;;4943324;28;20384;-77
2022/01/10 02:22:32;;;;;;;;;;;-0.40;99.90;;;;;;4942332;28;19949;-77
2022/01/10 02:25:00;;;;;;;;;;;-0.30;99.90;;;;;;4958568;28;19922;-77
2022/01/10 02:27:26;;;;;;;;;;;-0.40;99.90;;;;;;4958085;28;19981;-77
2022/01/10 02:29:52;;;;;;;;;;;-0.30;99.90;;;;;;4942274;28;21444;-78
2022/01/10 02:32:19;;;;;;;;;;;-0.40;99.90;;;;;;4958145;28;19976;-77
2022/01/10 02:34:44;;;;;;;;;;;-0.30;99.90;;;;;;4957870;28;19969;-77
2022/01/10 02:37:10;;;;;;;;;;;-0.40;99.90;;;;;;4942320;28;19976;-77
2022/01/10 02:39:36;;;;;;;;;;;-0.50;99.90;;;;;;4957653;28;19926;-77
2022/01/10 02:42:05;;;;;;;;;;;-0.40;99.90;;;;;;4942107;28;19930;-77
2022/01/10 02:44:31;;;;;;;;;;;-0.60;99.90;;;;;;4942094;28;19926;-77
2022/01/10 02:46:56;;;;;;;;;;;-0.50;99.90;;;;;;4958113;28;20375;-77
2022/01/10 02:49:23;;;;;;;;;;;-0.50;99.90;;;;;;4958292;28;19921;-78
2022/01/10 02:51:49;;;;;;;;;;;-0.70;99.90;;;;;;4942644;28;20365;-77
2022/01/10 02:54:15;;;;;;;;;;;-0.60;99.90;;;;;;4941712;28;19926;-77
2022/01/10 02:56:55;;;;;;;;;;;-0.60;99.90;;;;;;4942050;28;19922;-78
2022/01/10 02:59:21;;;;;;;;;;;-0.60;99.90;;;;;;4941837;28;19945;-78
2022/01/10 03:01:47;;;;;;;;;;;-0.60;99.90;;;;;;4942112;28;20009;-77
2022/01/10 03:04:12;;;;;;;;;;;-0.60;99.90;;;;;;4941476;28;20016;-77
2022/01/10 03:06:38;;;;;;;;;;;-0.60;99.90;;;;;;4957394;28;19988;-78
2022/01/10 03:09:06;;;;;;;;;;;-0.70;99.90;;;;;;4958481;28;19930;-78
2022/01/10 03:11:37;;;;;;;;;;;-0.70;99.90;;;;;;4941853;28;19958;-78
2022/01/10 03:14:03;;;;;;;;;;;-0.70;99.90;;;;;;4941246;28;19953;-78
2022/01/10 03:16:29;;;;;;;;;;;-0.70;99.90;;;;;;4957519;28;19922;-78
2022/01/10 03:18:57;;;;;;;;;;;-0.80;99.90;;;;;;4941852;28;19929;-78
2022/01/10 03:21:25;;;;;;;;;;;-0.80;99.90;;;;;;4957951;28;19922;-78
2022/01/10 03:23:51;;;;;;;;;;;-0.90;99.90;;;;;;4957304;28;19928;-78
2022/01/10 03:26:20;;;;;;;;;;;-0.90;99.90;;;;;;4957408;28;20297;-78
2022/01/10 03:28:46;;;;;;;;;;;-0.90;99.90;;;;;;4942444;28;19922;-77
2022/01/10 03:31:11;;;;;;;;;;;-0.90;99.90;;;;;;4941446;28;19929;-78
2022/01/10 03:33:39;;;;;;;;;;;-0.90;99.90;;;;;;4940067;28;22109;-78
2022/01/10 03:36:04;;;;;;;;;;;-0.90;99.90;;;;;;4941205;28;20009;-78
2022/01/10 03:38:30;;;;;;;;;;;-0.90;99.90;;;;;;4957358;28;19926;-78
2022/01/10 03:40:59;;;;;;;;;;;-0.90;99.90;;;;;;4941295;28;19976;-77
2022/01/10 03:43:25;;;;;;;;;;;-0.90;99.90;;;;;;4940640;28;19922;-78
2022/01/10 03:45:51;;;;;;;;;;;-0.80;99.90;;;;;;4940673;28;19922;-78
2022/01/10 03:48:19;;;;;;;;;;;-0.90;99.90;;;;;;4941215;28;19933;-78
2022/01/10 03:50:47;;;;;;;;;;;-0.90;99.90;;;;;;4940704;28;20405;-78
2022/01/10 03:53:12;;;;;;;;;;;-1.00;99.90;;;;;;4956877;28;19933;-78
2022/01/10 03:55:38;;;;;;;;;;;-1.00;99.90;;;;;;4940704;28;19922;-78
2022/01/10 03:58:04;;;;;;;;;;;-1.00;99.90;;;;;;4940368;28;19980;-78
2022/01/10 04:00:29;;;;;;;;;;;-1.00;99.90;;;;;;4956472;28;20431;-78
2022/01/10 04:03:01;;;;;;;;;;;-1.00;99.90;;;;;;4940503;28;19970;-77
2022/01/10 04:05:26;;;;;;;;;;;-1.10;99.90;;;;;;4940904;28;19933;-77
2022/01/10 04:07:52;;;;;;;;;;;-1.00;99.90;;;;;;4940858;28;20298;-78
2022/01/10 04:10:18;;;;;;;;;;;-0.90;99.90;;;;;;4940192;28;20302;-78
2022/01/10 04:12:44;;;;;;;;;;;-0.90;99.90;;;;;;4955991;28;20072;-78
2022/01/10 04:15:09;;;;;;;;;;;-0.90;99.90;;;;;;4956196;28;20079;-78
2022/01/10 04:17:35;;;;;;;;;;;-1.00;99.90;;;;;;4956716;28;20366;-77
2022/01/10 04:20:01;;;;;;;;;;;-1.00;99.90;;;;;;4940663;28;19949;-77
2022/01/10 04:22:27;;;;;;;;;;;-1.10;99.90;;;;;;4955960;28;19926;-77
2022/01/10 04:24:52;;;;;;;;;;;-1.10;99.90;;;;;;4955940;28;19929;-77
2022/01/10 04:27:18;;;;;;;;;;;-1.10;99.90;;;;;;4955389;28;19929;-78
2022/01/10 04:29:44;;;;;;;;;;;-1.10;99.90;;;;;;4939695;28;20009;-78
2022/01/10 04:32:11;;;;;;;;;;;-1.00;99.90;;;;;;4956618;28;20026;-77
2022/01/10 04:34:38;;;;;;;;;;;-1.00;99.90;;;;;;4955951;28;19926;-77
2022/01/10 04:37:04;;;;;;;;;;;-0.90;99.90;;;;;;4940109;28;19945;-77
2022/01/10 04:39:29;;;;;;;;;;;-1.00;99.90;;;;;;4955598;28;19961;-77
2022/01/10 04:41:55;;;;;;;;;;;-1.10;99.90;;;;;;4956017;28;19926;-77
2022/01/10 04:44:21;;;;;;;;;;;-1.10;99.90;;;;;;4940022;28;19922;-78
2022/01/10 04:46:47;;;;;;;;;;;-1.10;99.90;;;;;;4955742;28;19929;-77
2022/01/10 04:49:24;;;;;;;;;;;-1.20;99.90;;;;;;4954898;28;19972;-78
2022/01/10 04:51:52;;;;;;;;;;;-1.20;99.90;;;;;;4939999;28;20350;-78
2022/01/10 04:54:20;;;;;;;;;;;-1.30;99.90;;;;;;4955545;28;19933;-78
2022/01/10 04:56:48;;;;;;;;;;;-1.30;99.90;;;;;;4955867;28;20040;-77
2022/01/10 04:59:14;;;;;;;;;;;-1.30;99.90;;;;;;4940385;28;19922;-77
2022/01/10 05:01:40;;;;;;;;;;;-1.30;99.90;;;;;;4942406;28;19930;-77
2022/01/10 05:04:06;;;;;;;;;;;-1.20;99.90;;;;;;4961889;28;19929;-77
2022/01/10 05:06:32;;;;;;;;;;;-1.30;99.90;;;;;;4962553;28;19926;-77
2022/01/10 05:08:58;;;;;;;;;;;-1.20;99.90;;;;;;4945774;28;20396;-77
2022/01/10 05:11:23;;;;;;;;;;;-1.20;99.90;;;;;;4962481;28;19950;-77
2022/01/10 05:13:49;;;;;;;;;;;-1.10;99.90;;;;;;4961921;28;20012;-77
2022/01/10 05:16:16;;;;;;;;;;;-1.10;99.90;;;;;;4946233;28;19922;-77
2022/01/10 05:18:41;;;;;;;;;;;-1.10;99.90;;;;;;4962053;28;19922;-77
2022/01/10 05:21:08;;;;;;;;;;;-1.00;99.90;;;;;;4962309;28;19922;-78
2022/01/10 05:23:34;;;;;;;;;;;-1.00;99.90;;;;;;4961706;28;19922;-78
2022/01/10 05:25:59;;;;;;;;;;;-1.00;99.90;;;;;;4961950;28;19926;-77
2022/01/10 05:28:25;;;;;;;;;;;-0.90;99.90;;;;;;4945939;28;19922;-77
2022/01/10 05:30:53;;;;;;;;;;;-0.90;99.90;;;;;;4961842;28;19929;-78
2022/01/10 05:33:19;;;;;;;;;;;-0.90;99.90;;;;;;4961810;28;19926;-77
2022/01/10 05:35:47;;;;;;;;;;;-0.90;99.90;;;;;;4945999;28;19929;-77
2022/01/10 05:38:13;;;;;;;;;;;-0.80;99.90;;;;;;4962112;28;19969;-77
2022/01/10 05:40:42;;;;;;;;;;;-0.80;99.90;;;;;;4946723;28;19922;-77
2022/01/10 05:43:08;;;;;;;;;;;-0.80;99.90;;;;;;4961808;28;19929;-78
2022/01/10 05:45:33;;;;;;;;;;;-0.70;99.90;;;;;;4961212;28;19929;-77
2022/01/10 05:48:07;;;;;;;;;;;-0.70;99.90;;;;;;4961740;28;20017;-77
2022/01/10 05:50:34;;;;;;;;;;;-0.60;99.90;;;;;;4961882;28;19922;-77
2022/01/10 05:53:00;;;;;;;;;;;-0.60;99.90;;;;;;4961121;28;19922;-77
2022/01/10 05:55:26;;;;;;;;;;;-0.60;99.90;;;;;;4962135;28;20185;-78
2022/01/10 05:57:52;;;;;;;;;;;-0.60;99.90;;;;;;4946124;28;20010;-77
2022/01/10 06:00:17;;;;;;;;;;;-0.60;99.90;;;;;;4945492;28;20012;-78
2022/01/10 06:02:43;;;;;;;;;;;-0.60;99.90;;;;;;4962016;28;19930;-77
2022/01/10 06:05:09;;;;;;;;;;;-0.50;99.90;;;;;;4945637;28;20401;-77
2022/01/10 06:07:36;;;;;;;;;;;-0.50;99.90;;;;;;4945647;28;20289;-77
2022/01/10 06:10:03;;;;;;;;;;;-0.50;99.90;;;;;;4946222;28;19922;-77
2022/01/10 06:12:28;;;;;;;;;;;-0.50;99.90;;;;;;4945137;28;19969;-77
2022/01/10 06:14:54;;;;;;;;;;;-0.50;99.90;;;;;;4942389;28;19974;-77
2022/01/10 06:17:19;;;;;;;;;;;-0.40;99.90;;;;;;4942629;28;19969;-77
2022/01/10 06:19:45;;;;;;;;;;;-0.50;99.90;;;;;;4942572;28;19925;-77
2022/01/10 06:22:10;;;;;;;;;;;-0.50;99.90;;;;;;4942498;28;20315;-77
2022/01/10 06:24:36;;;;;;;;;;;-0.50;99.90;;;;;;4958188;28;19926;-78
2022/01/10 06:27:01;;;;;;;;;;;-0.60;99.90;;;;;;4958102;28;19976;-78
2022/01/10 06:29:27;;;;;;;;;;;-0.60;99.90;;;;;;4958412;28;19922;-78
2022/01/10 06:31:53;;;;;;;;;;;-0.60;99.90;;;;;;4942389;28;19969;-77
2022/01/10 06:34:18;;;;;;;;;;;-0.60;99.90;;;;;;4941857;28;19933;-77
2022/01/10 06:36:45;;;;;;;;;;;-0.70;99.90;;;;;;4941758;28;19922;-77
2022/01/10 06:39:11;;;;;;;;;;;-0.60;99.90;;;;;;4941904;28;19966;-77
2022/01/10 06:41:37;;;;;;;;;;;-0.80;99.90;;;;;;4941999;28;19977;-77
2022/01/10 06:44:02;;;;;;;;;;;-0.80;99.90;;;;;;4942090;28;19976;-78
2022/01/10 06:46:28;;;;;;;;;;;-0.80;99.90;;;;;;4942196;28;20294;-77
2022/01/10 06:48:53;;;;;;;;;;;-0.70;99.90;;;;;;4957977;28;20401;-77
2022/01/10 06:51:19;;;;;;;;;;;-0.90;99.90;;;;;;4957613;28;19922;-78
2022/01/10 06:53:47;;;;;;;;;;;-1.00;99.90;;;;;;4941868;28;19926;-77
2022/01/10 06:56:13;;;;;;;;;;;-0.90;99.90;;;;;;4941991;28;19922;-77
2022/01/10 06:58:38;;;;;;;;;;;-1.00;99.90;;;;;;4958112;28;19929;-77
2022/01/10 07:01:07;;;;;;;;;;;-1.00;99.90;;;;;;4941723;28;19926;-78
2022/01/10 07:03:32;;;;;;;;;;;-1.00;99.90;;;;;;4957221;28;19973;-77
2022/01/10 07:06:00;;;;;;;;;;;-1.00;99.90;;;;;;4957821;28;20012;-77
2022/01/10 07:08:26;;;;;;;;;;;-1.00;99.90;;;;;;4957544;28;19933;-78
2022/01/10 07:10:52;;;;;;;;;;;-1.00;99.90;;;;;;4941330;28;19922;-77
2022/01/10 07:13:17;;;;;;;;;;;-1.00;99.90;;;;;;4940853;28;19977;-77
2022/01/10 07:15:44;;;;;;;;;;;-1.00;99.90;;;;;;4957753;28;20263;-77
2022/01/10 07:18:10;;;;;;;;;;;-1.00;99.90;;;;;;4940917;28;19922;-77
2022/01/10 07:20:35;;;;;;;;;;;-1.10;99.90;;;;;;4957914;28;19926;-77
2022/01/10 07:23:01;;;;;;;;;;;-1.10;99.90;;;;;;4941622;28;20017;-77
2022/01/10 07:25:26;;;;;;;;;;;-1.10;99.90;;;;;;4940805;28;20025;-77
2022/01/10 07:27:52;;;;;;;;;;;-1.10;99.90;;;;;;4956923;28;20422;-77
2022/01/10 07:30:18;;;;;;;;;;;-1.10;99.90;;;;;;4957471;28;19949;-77
2022/01/10 07:32:44;;;;;;;;;;;-1.10;99.90;;;;;;4940915;28;19922;-78
2022/01/10 07:35:10;;;;;;;;;;;-1.10;99.90;;;;;;4956854;28;20051;-77
2022/01/10 07:37:36;;;;;;;;;;;-1.10;99.90;;;;;;4957448;28;19949;-77
2022/01/10 07:40:03;;;;;;;;;;;-1.10;99.90;;;;;;4940811;28;20366;-77
2022/01/10 07:42:28;;;;;;;;;;;-1.10;99.90;;;;;;4941042;28;20239;-77
2022/01/10 07:44:54;;;;;;;;;;;-1.10;99.90;;;;;;4957392;28;20012;-75
2022/01/10 07:47:19;;;;;;;;;;;-1.10;99.90;;;;;;4957097;28;19922;-75
2022/01/10 07:49:52;;;;;;;;;;;-1.10;99.90;;;;;;4944715;28;19929;-77
2022/01/10 07:52:18;;;;;;;;;;;-1.10;99.90;;;;;;4940959;28;19922;-74
2022/01/10 07:54:44;;;;;;;;;;;-1.20;99.90;;;;;;4940571;28;20297;-77
2022/01/10 07:57:10;;;;;;;;;;;-1.20;99.90;;;;;;4940717;28;19922;-77
2022/01/10 07:59:40;;;;;;;;;;;-1.20;99.90;;;;;;4940102;28;19930;-77
2022/01/10 08:02:08;;;;;;;;;;;-1.20;99.90;;;;;;4955902;28;20422;-78
2022/01/10 08:04:34;;;;;;;;;;;-1.30;99.90;;;;;;4955187;28;19962;-78
2022/01/10 08:07:00;;;;;;;;;;;-1.20;99.90;;;;;;4940433;28;19929;-75
2022/01/10 08:09:25;;;;;;;;;;;-1.20;99.90;;;;;;4940040;28;19926;-77
2022/01/10 08:11:59;;;;;;;;;;;-1.20;99.90;;;;;;4940734;28;19930;-77
2022/01/10 08:14:25;;;;;;;;;;;-1.20;99.90;;;;;;4956303;28;19949;-77
2022/01/10 08:16:51;;;;;;;;;;;-1.20;99.90;;;;;;4940300;28;19922;-76
2022/01/10 08:19:20;;;;;;;;;;;-1.20;99.90;;;;;;4956494;28;19922;-78
2022/01/10 08:21:46;;;;;;;;;;;-1.20;99.90;;;;;;4955948;28;19980;-76
2022/01/10 08:24:12;;;;;;;;;;;-1.20;99.90;;;;;;4957265;28;19922;-76
2022/01/10 08:26:37;;;;;;;;;;;-1.20;99.90;;;;;;4939836;28;19962;-76
2022/01/10 08:29:03;;;;;;;;;;;-1.10;99.90;;;;;;4940525;28;19930;-77
2022/01/10 08:31:28;;;;;;;;;;;-1.10;99.90;;;;;;4940790;28;19926;-76
2022/01/10 08:33:54;;;;;;;;;;;-1.10;99.90;;;;;;4940301;28;19926;-75
2022/01/10 08:36:20;;;;;;;;;;;-1.10;99.90;;;;;;4939495;28;20390;-76
2022/01/10 08:38:46;;;;;;;;;;;-1.10;99.90;;;;;;4956534;28;19934;-77
2022/01/10 08:41:13;;;;;;;;;;;-1.10;99.90;;;;;;4955465;28;20045;-77
2022/01/10 08:43:39;;;;;;;;;;;-1.10;99.90;;;;;;4956188;28;19972;-77
2022/01/10 08:46:05;;;;;;;;;;;-1.00;99.90;;;;;;4956573;28;19958;-77
2022/01/10 08:48:31;;;;;;;;;;;-1.00;99.90;;;;;;4956057;28;19929;-78
2022/01/10 08:50:57;;;;;;;;;;;-1.00;99.90;;;;;;4940538;28;19922;-77
2022/01/10 08:53:23;;;;;;;;;;;-0.90;99.90;;;;;;4940092;28;20276;-78
2022/01/10 08:55:53;;;;;;;;;;;-0.90;99.90;;;;;;4940953;28;19926;-77
2022/01/10 08:58:19;;;;;;;;;;;-0.80;99.90;;;;;;4940514;28;20387;-77
2022/01/10 09:00:45;;;;;;;;;;;-0.80;99.90;;;;;;4940494;28;19965;-77
2022/01/10 09:03:14;;;;;;;;;;;-0.70;99.90;;;;;;4940230;28;19922;-77
2022/01/10 09:05:50;;;;;;;;;;;-0.70;99.90;;;;;;4955860;28;19922;-77
2022/01/10 09:08:15;;;;;;;;;;;-0.60;99.90;;;;;;4956505;28;19926;-77
2022/01/10 09:10:41;;;;;;;;;;;-0.50;99.90;;;;;;4939773;28;20267;-77
2022/01/10 09:13:09;;;;;;;;;;;-0.50;99.90;;;;;;4939783;28;20540;-77
2022/01/10 09:15:38;;;;;;;;;;;-0.50;99.90;;;;;;4955842;28;19922;-77
2022/01/10 09:18:04;;;;;;;;;;;-0.40;99.90;;;;;;4939336;28;19985;-77
2022/01/10 09:20:36;;;;;;;;;;;-0.40;99.90;;;;;;4955555;28;19922;-78
2022/01/10 09:23:07;;;;;;;;;;;-0.30;99.90;;;;;;4956143;28;20387;-77
2022/01/10 09:25:44;;;;;;;;;;;-0.30;99.90;;;;;;4940567;28;20362;-77
2022/01/10 09:28:15;;;;;;;;;;;-0.20;99.90;;;;;;4940132;28;19996;-76
2022/01/10 09:30:40;;;;;;;;;;;-0.10;99.90;;;;;;4939229;28;20383;-76
2022/01/10 09:33:14;;;;;;;;;;;-0.10;99.90;;;;;;4955136;28;19932;-80
2022/01/10 09:35:45;;;;;;;;;;;0.00;99.90;;;;;;4939774;28;20021;-77
2022/01/10 09:38:15;;;;;;;;;;;0.10;99.90;;;;;;4939831;28;19952;-77
2022/01/10 09:40:52;;;;;;;;;;;0.00;99.90;;;;;;4957060;28;19926;-77
2022/01/10 09:50:33;;;;;;;;;;;0.30;99.90;;;;;;4953644;28;19934;-77
2022/01/10 09:53:16;;;;;;;;;;;0.40;99.90;;;;;;4985157;28;19921;-78
2022/01/10 09:55:54;;;;;;;;;;;0.60;99.90;;;;;;5002723;28;19973;-78
2022/01/10 09:58:24;;;;;;;;;;;0.70;99.90;;;;;;4980435;28;20012;-78
2022/01/10 10:01:02;;;;;;;;;;;0.70;99.90;;;;;;4967335;28;20020;-78
2022/01/10 10:03:28;;;;;;;;;;;0.90;99.90;;;;;;4971871;28;19922;-77
2022/01/10 10:05:57;;;;;;;;;;;1.00;99.90;;;;;;4965779;28;19921;-78
2022/01/10 10:08:31;;;;;;;;;;;1.20;99.90;;;;;;4967585;28;19921;-78
2022/01/10 10:11:09;;;;;;;;;;;1.40;99.90;;;;;;4979285;28;20416;-78
2022/01/10 10:13:46;;;;;;;;;;;1.40;99.90;;;;;;4977703;28;19926;-78
2022/01/10 10:16:16;;;;;;;;;;;1.40;99.90;;;;;;4978848;28;20275;-78
2022/01/10 10:18:43;;;;;;;;;;;1.40;99.90;;;;;;4977674;28;19981;-78
2022/01/10 10:21:17;;;;;;;;;;;1.40;99.90;;;;;;4972915;28;20004;-77
2022/01/10 10:23:46;;;;;;;;;;;1.50;99.90;;;;;;4985992;28;19930;-77
2022/01/10 10:26:32;;;;;;;;;;;1.50;99.90;;;;;;4968221;28;19922;-77
2022/01/10 10:29:01;;;;;;;;;;;1.50;99.90;;;;;;4968110;28;19922;-77
2022/01/10 10:31:37;;;;;;;;;;;1.60;99.90;;;;;;4963125;28;19996;-77
2022/01/10 10:34:08;;;;;;;;;;;1.60;99.90;;;;;;4966827;28;20001;-77
2022/01/10 10:36:37;;;;;;;;;;;1.70;99.90;;;;;;4966563;28;19972;-77
2022/01/10 10:39:10;;;;;;;;;;;1.70;99.90;;;;;;4976915;28;19932;-76
2022/01/10 10:41:48;;;;;;;;;;;1.80;99.90;;;;;;4974711;28;20125;-76
2022/01/10 10:44:19;;;;;;;;;;;1.90;99.90;;;;;;4984797;28;19968;-77
2022/01/10 10:46:50;;;;;;;;;;;2.10;99.90;;;;;;4996994;28;19928;-77
2022/01/10 10:49:18;;;;;;;;;;;2.20;99.90;;;;;;4981937;28;19972;-76
2022/01/10 10:51:49;;;;;;;;;;;2.40;99.90;;;;;;4968027;28;19965;-77
2022/01/10 10:54:25;;;;;;;;;;;2.50;99.90;;;;;;4988297;28;20413;-77
2022/01/10 10:56:53;;;;;;;;;;;2.60;99.90;;;;;;4980421;28;20294;-76
2022/01/10 10:59:19;;;;;;;;;;;2.80;99.90;;;;;;4976285;28;19921;-77
2022/01/10 11:01:57;;;;;;;;;;;;;;;;;;;;;
2022/01/10 11:04:35;;;;;;;;;;;3.00;99.90;;;;;;4992118;28;20405;-76
2022/01/10 11:07:03;;;;;;;;;;;3.00;99.90;;;;;;4964238;28;19929;-77
2022/01/10 11:09:29;;;;;;;;;;;3.10;99.90;;;;;;4992325;28;20396;-76
2022/01/10 11:11:57;;;;;;;;;;;3.20;99.90;;;;;;4977469;28;19922;-76
2022/01/10 11:14:24;;;;;;;;;;;3.20;99.90;;;;;;4986534;28;19926;-77
2022/01/10 11:16:52;;;;;;;;;;;3.20;99.90;;;;;;4970070;28;19980;-76
2022/01/10 11:19:22;;;;;;;;;;;3.20;99.90;;;;;;4975217;28;20367;-77
2022/01/10 11:22:05;;;;;;;;;;;3.20;99.90;;;;;;4983575;28;20016;-79
2022/01/10 11:24:53;;;;;;;;;;;3.20;99.90;;;;;;4968082;28;20009;-76
2022/01/10 11:27:33;;;;;;;;;;;3.30;99.90;;;;;;4966321;28;19929;-78
2022/01/10 11:30:28;;;;;;;;;;;3.60;99.90;;;;;;4984371;28;19957;-77
2022/01/10 11:33:02;;;;;;;;;;;4.00;99.90;;;;;;4981408;28;19929;-77
2022/01/10 11:35:32;;;;;;;;;;;4.70;99.90;;;;;;4986870;28;19922;-77
2022/01/10 11:38:17;;;;;;;;;;;5.40;99.90;;;;;;4979115;28;20004;-77
2022/01/10 11:40:52;;;;;;;;;;;6.20;99.90;;;;;;4996434;28;19921;-77
2022/01/10 11:43:29;;;;;;;;;;;7.00;99.90;;;;;;4983103;28;20024;-77
2022/01/10 11:46:10;;;;;;;;;;;7.70;99.90;;;;;;4987181;28;19930;-78
2022/01/10 11:49:03;;;;;;;;;;;8.30;99.90;;;;;;4964183;28;19921;-77
2022/01/10 11:51:34;;;;;;;;;;;8.80;99.90;;;;;;4967765;28;19926;-77
2022/01/10 11:54:22;;;;;;;;;;;9.40;99.90;;;;;;4956971;28;19981;-77
2022/01/10 11:56:52;;;;;;;;;;;9.90;99.90;;;;;;4975798;28;19941;-77
2022/01/10 11:59:22;;;;;;;;;;;10.40;99.90;;;;;;4975855;28;20244;-77
2022/01/10 12:01:49;;;;;;;;;;;10.90;99.90;;;;;;4979767;28;19921;-76
2022/01/10 12:04:19;;;;;;;;;;;11.30;99.90;;;;;;5001415;28;19937;-77
2022/01/10 12:06:48;;;;;;;;;;;11.70;99.90;;;;;;4972994;28;19922;-77
2022/01/10 12:09:14;;;;;;;;;;;12.00;99.90;;;;;;4962481;28;19980;-77
2022/01/10 12:11:48;;;;;;;;;;;12.30;99.90;;;;;;4969236;28;19972;-77
2022/01/10 12:14:14;;;;;;;;;;;12.60;99.90;;;;;;4973920;28;20297;-76
2022/01/10 12:16:40;;;;;;;;;;;12.60;99.90;;;;;;4960715;28;19926;-77
2022/01/10 12:19:09;;;;;;;;;;;12.60;99.90;;;;;;4968987;28;20596;-76
2022/01/10 12:21:35;;;;;;;;;;;12.70;99.90;;;;;;4972404;28;20345;-77
2022/01/10 12:24:05;;;;;;;;;;;12.80;97.10;;;;;;4986694;28;19922;-77
2022/01/10 12:26:31;;;;;;;;;;;12.90;99.90;;;;;;4987309;28;20394;-77
2022/01/10 12:28:58;;;;;;;;;;;12.90;95.80;;;;;;4957699;28;20013;-77
2022/01/10 12:31:24;;;;;;;;;;;13.00;99.90;;;;;;4970246;28;19969;-77
2022/01/10 12:33:51;;;;;;;;;;;13.10;99.90;;;;;;4966239;28;20405;-77
2022/01/10 12:36:17;;;;;;;;;;;13.10;99.90;;;;;;4963241;28;19926;-77
2022/01/10 12:38:43;;;;;;;;;;;13.00;99.30;;;;;;4974010;28;19926;-77
2022/01/10 12:41:09;;;;;;;;;;;13.10;99.60;;;;;;4957271;28;20298;-77
2022/01/10 12:43:35;;;;;;;;;;;13.10;95.70;;;;;;4958300;28;19965;-77
2022/01/10 12:46:01;;;;;;;;;;;13.10;98.40;;;;;;4972207;28;19980;-77
2022/01/10 12:48:26;;;;;;;;;;;13.20;98.60;;;;;;4969303;28;19961;-77
2022/01/10 12:50:54;;;;;;;;;;;13.10;98.50;;;;;;4971456;28;20374;-78
2022/01/10 12:53:20;;;;;;;;;;;13.00;95.70;;;;;;4963513;28;20017;-78
2022/01/10 12:55:46;;;;;;;;;;;12.90;94.20;;;;;;4969236;28;20465;-78
2022/01/10 12:58:12;;;;;;;;;;;13.00;98.60;;;;;;4977966;28;19957;-78
2022/01/10 13:00:38;;;;;;;;;;;13.00;98.30;;;;;;4973862;28;19930;-78
2022/01/10 13:03:07;;;;;;;;;;;12.90;97.00;;;;;;4961544;28;19926;-78
2022/01/10 13:05:34;;;;;;;;;;;12.70;97.70;;;;;;4962511;28;19926;-78
2022/01/10 13:08:00;;;;;;;;;;;12.30;96.00;;;;;;4962021;28;19926;-77
2022/01/10 13:10:33;;;;;;;;;;;12.00;97.20;;;;;;4962271;28;19922;-78
2022/01/10 13:13:02;;;;;;;;;;;11.40;97.90;;;;;;4961772;28;19926;-77
2022/01/10 13:15:35;;;;;;;;;;;10.80;99.90;;;;;;4962491;28;19926;-78
2022/01/10 13:18:02;;;;;;;;;;;10.40;99.90;;;;;;4960999;28;20309;-78
2022/01/10 13:20:32;;;;;;;;;;;9.80;99.90;;;;;;4974480;28;20405;-79
2022/01/10 13:23:05;;;;;;;;;;;9.30;99.90;;;;;;4978211;28;20012;-79
2022/01/10 13:25:37;;;;;;;;;;;8.90;99.90;;;;;;4981106;28;19992;-79
2022/01/10 13:28:06;;;;;;;;;;;8.60;99.90;;;;;;4964697;28;19981;-79
2022/01/10 13:30:33;;;;;;;;;;;8.20;99.90;;;;;;4964994;28;19930;-76
2022/01/10 13:32:59;;;;;;;;;;;7.90;99.90;;;;;;4969441;28;19993;-76
2022/01/10 13:35:26;;;;;;;;;;;7.60;99.90;;;;;;4961556;28;19929;-76
2022/01/10 13:37:58;;;;;;;;;;;7.40;99.90;;;;;;4962721;28;19926;-75
2022/01/10 13:40:24;;;;;;;;;;;7.20;99.90;;;;;;4959680;28;20478;-75
2022/01/10 13:43:04;;;;;;;;;;;7.00;99.90;;;;;;4961169;28;20013;-76
2022/01/10 13:45:41;;;;;;;;;;;6.90;99.90;;;;;;4967420;28;19991;-75
2022/01/10 13:48:11;;;;;;;;;;;6.80;99.90;;;;;;4985024;28;19940;-75
2022/01/10 13:50:41;;;;;;;;;;;6.80;99.90;;;;;;4994619;28;19929;-77
2022/01/10 13:53:09;;;;;;;;;;;6.80;99.90;;;;;;4977128;28;20008;-77
2022/01/10 13:55:38;;;;;;;;;;;6.70;99.90;;;;;;4978758;28;19972;-75
2022/01/10 13:58:07;;;;;;;;;;;6.60;99.90;;;;;;4977217;28;19921;-75
2022/01/10 14:00:33;;;;;;;;;;;6.50;99.90;;;;;;4982119;28;20028;-75
2022/01/10 14:02:58;;;;;;;;;;;6.30;99.90;;;;;;4975265;28;20398;-75
2022/01/10 14:05:27;;;;;;;;;;;6.20;99.90;;;;;;4974983;28;19969;-75
2022/01/10 14:07:54;;;;;;;;;;;6.10;99.90;;;;;;4985719;28;19925;-75
2022/01/10 14:10:21;;;;;;;;;;;5.90;99.90;;;;;;4989791;28;19947;-75
2022/01/10 14:12:46;;;;;;;;;;;5.80;99.90;;;;;;4997165;28;19922;-75
2022/01/10 14:15:12;;;;;;;;;;;5.70;99.90;;;;;;4997645;28;19925;-75
2022/01/10 14:17:38;;;;;;;;;;;5.60;99.90;;;;;;4997578;28;19972;-75
2022/01/10 14:20:06;;;;;;;;;;;5.60;99.90;;;;;;4970086;28;19926;-75
2022/01/10 14:22:32;;;;;;;;;;;5.50;99.90;;;;;;4978057;28;19922;-75
2022/01/10 14:24:58;;;;;;;;;;;5.40;99.90;;;;;;4996540;28;19972;-76
2022/01/10 14:27:24;;;;;;;;;;;5.30;99.90;;;;;;4965831;28;20718;-75
2022/01/10 14:29:50;;;;;;;;;;;5.30;99.90;;;;;;4986056;28;19930;-75
2022/01/10 14:32:15;;;;;;;;;;;5.20;99.90;;;;;;4977133;28;19933;-75
2022/01/10 14:34:41;;;;;;;;;;;5.20;99.90;;;;;;4977578;28;19969;-75
2022/01/10 14:37:07;;;;;;;;;;;5.10;99.90;;;;;;4983603;28;19926;-76
2022/01/10 14:39:32;;;;;;;;;;;5.10;99.90;;;;;;4995565;28;19948;-75
2022/01/10 14:42:00;;;;;;;;;;;5.00;99.90;;;;;;4999521;28;19928;-76
2022/01/10 14:44:26;;;;;;;;;;;5.00;99.90;;;;;;4989695;28;19925;-75
2022/01/10 14:46:52;;;;;;;;;;;4.90;99.90;;;;;;5003848;28;19929;-75